sensor_id;sensor_type;location;lat;lon;timestamp;P1;durP1;ratioP1;P2;durP2;ratioP2
64052;SDS011;50299;49.524;8.536;2023-04-03T00:02:00;11.57;;;6.78;;
64052;SDS011;50299;49.524;8.536;2023-04-03T00:04:27;4.90;;;4.60;;
64052;SDS011;50299;49.524;8.536;2023-04-03T00:06:53;4.90;;;4.13;;
64052;SDS011;50299;49.524;8.536;2023-04-03T00:09:20;4.75;;;4.40;;
64052;SDS011;50299;49.524;8.536;2023-04-03T00:11:46;4.57;;;4.18;;
64052;SDS011;50299;49.524;8.536;2023-04-03T00:14:13;4.55;;;4.20;;
64052;SDS011;50299;49.524;8.536;2023-04-03T00:16:43;5.82;;;5.38;;
64052;SDS011;50299;49.524;8.536;2023-04-03T00:19:09;4.70;;;4.38;;
64052;SDS011;50299;49.524;8.536;2023-04-03T00:21:38;3.58;;;3.30;;
64052;SDS011;50299;49.524;8.536;2023-04-03T00:24:05;5.50;;;5.07;;
64052;SDS011;50299;49.524;8.536;2023-04-03T00:26:31;4.43;;;4.13;;
64052;SDS011;50299;49.524;8.536;2023-04-03T00:29:01;5.65;;;4.88;;
64052;SDS011;50299;49.524;8.536;2023-04-03T00:31:27;5.97;;;4.80;;
64052;SDS011;50299;49.524;8.536;2023-04-03T00:33:53;5.03;;;4.57;;
64052;SDS011;50299;49.524;8.536;2023-04-03T00:36:20;6.20;;;5.68;;
64052;SDS011;50299;49.524;8.536;2023-04-03T00:38:47;23.75;;;8.77;;
64052;SDS011;50299;49.524;8.536;2023-04-03T00:41:13;9.05;;;8.13;;
64052;SDS011;50299;49.524;8.536;2023-04-03T00:43:39;5.45;;;5.05;;
64052;SDS011;50299;49.524;8.536;2023-04-03T00:46:06;7.13;;;6.30;;
64052;SDS011;50299;49.524;8.536;2023-04-03T00:48:34;6.45;;;5.95;;
64052;SDS011;50299;49.524;8.536;2023-04-03T00:51:07;7.05;;;5.07;;
64052;SDS011;50299;49.524;8.536;2023-04-03T00:53:39;6.20;;;5.70;;
64052;SDS011;50299;49.524;8.536;2023-04-03T00:56:09;5.82;;;5.32;;
64052;SDS011;50299;49.524;8.536;2023-04-03T00:58:40;5.25;;;4.85;;
64052;SDS011;50299;49.524;8.536;2023-04-03T01:01:29;5.63;;;5.10;;
64052;SDS011;50299;49.524;8.536;2023-04-03T01:04:01;5.63;;;4.05;;
64052;SDS011;50299;49.524;8.536;2023-04-03T01:06:31;6.18;;;5.57;;
64052;SDS011;50299;49.524;8.536;2023-04-03T01:09:01;6.47;;;5.93;;
64052;SDS011;50299;49.524;8.536;2023-04-03T01:11:28;5.70;;;5.30;;
64052;SDS011;50299;49.524;8.536;2023-04-03T01:13:55;6.43;;;5.82;;
64052;SDS011;50299;49.524;8.536;2023-04-03T01:16:21;4.88;;;4.47;;
64052;SDS011;50299;49.524;8.536;2023-04-03T01:18:48;7.22;;;6.30;;
64052;SDS011;50299;49.524;8.536;2023-04-03T01:21:36;7.45;;;6.82;;
64052;SDS011;50299;49.524;8.536;2023-04-03T01:26:53;8.68;;;7.85;;
64052;SDS011;50299;49.524;8.536;2023-04-03T01:29:20;7.85;;;7.30;;
64052;SDS011;50299;49.524;8.536;2023-04-03T01:31:50;7.10;;;6.50;;
64052;SDS011;50299;49.524;8.536;2023-04-03T01:34:19;12.20;;;9.45;;
64052;SDS011;50299;49.524;8.536;2023-04-03T01:36:46;6.22;;;5.70;;
64052;SDS011;50299;49.524;8.536;2023-04-03T01:39:13;9.73;;;8.82;;
64052;SDS011;50299;49.524;8.536;2023-04-03T01:41:39;7.85;;;7.15;;
64052;SDS011;50299;49.524;8.536;2023-04-03T01:44:06;5.63;;;5.20;;
64052;SDS011;50299;49.524;8.536;2023-04-03T01:46:32;7.90;;;7.18;;
64052;SDS011;50299;49.524;8.536;2023-04-03T01:48:59;6.30;;;5.75;;
64052;SDS011;50299;49.524;8.536;2023-04-03T01:51:25;7.15;;;6.45;;
64052;SDS011;50299;49.524;8.536;2023-04-03T01:53:52;7.93;;;7.13;;
64052;SDS011;50299;49.524;8.536;2023-04-03T01:56:18;7.82;;;7.03;;
64052;SDS011;50299;49.524;8.536;2023-04-03T01:58:45;8.23;;;7.55;;
64052;SDS011;50299;49.524;8.536;2023-04-03T02:01:11;7.60;;;6.22;;
64052;SDS011;50299;49.524;8.536;2023-04-03T02:03:38;11.95;;;10.73;;
64052;SDS011;50299;49.524;8.536;2023-04-03T02:06:04;6.40;;;5.88;;
64052;SDS011;50299;49.524;8.536;2023-04-03T02:08:31;7.15;;;6.55;;
64052;SDS011;50299;49.524;8.536;2023-04-03T02:11:00;8.45;;;7.68;;
64052;SDS011;50299;49.524;8.536;2023-04-03T02:13:27;9.90;;;8.95;;
64052;SDS011;50299;49.524;8.536;2023-04-03T02:15:53;9.50;;;7.30;;
64052;SDS011;50299;49.524;8.536;2023-04-03T02:18:20;8.15;;;7.45;;
64052;SDS011;50299;49.524;8.536;2023-04-03T02:20:46;11.65;;;9.57;;
64052;SDS011;50299;49.524;8.536;2023-04-03T02:23:13;12.40;;;11.07;;
64052;SDS011;50299;49.524;8.536;2023-04-03T02:25:40;11.23;;;10.13;;
64052;SDS011;50299;49.524;8.536;2023-04-03T02:28:06;17.95;;;14.13;;
64052;SDS011;50299;49.524;8.536;2023-04-03T02:30:33;6.43;;;5.82;;
64052;SDS011;50299;49.524;8.536;2023-04-03T02:33:02;7.88;;;7.25;;
64052;SDS011;50299;49.524;8.536;2023-04-03T02:35:29;9.30;;;8.40;;
64052;SDS011;50299;49.524;8.536;2023-04-03T02:37:58;7.95;;;6.78;;
64052;SDS011;50299;49.524;8.536;2023-04-03T02:40:24;8.98;;;8.10;;
64052;SDS011;50299;49.524;8.536;2023-04-03T02:42:51;23.92;;;12.40;;
64052;SDS011;50299;49.524;8.536;2023-04-03T02:45:17;12.65;;;11.13;;
64052;SDS011;50299;49.524;8.536;2023-04-03T02:47:43;8.60;;;7.90;;
64052;SDS011;50299;49.524;8.536;2023-04-03T02:50:10;7.53;;;6.38;;
64052;SDS011;50299;49.524;8.536;2023-04-03T02:52:36;8.88;;;8.07;;
64052;SDS011;50299;49.524;8.536;2023-04-03T02:55:03;11.80;;;10.20;;
64052;SDS011;50299;49.524;8.536;2023-04-03T02:57:29;10.55;;;9.13;;
64052;SDS011;50299;49.524;8.536;2023-04-03T02:59:56;13.35;;;10.52;;
64052;SDS011;50299;49.524;8.536;2023-04-03T03:02:23;131.38;;;25.17;;
64052;SDS011;50299;49.524;8.536;2023-04-03T03:04:49;114.03;;;20.02;;
64052;SDS011;50299;49.524;8.536;2023-04-03T03:07:15;19.08;;;15.23;;
64052;SDS011;50299;49.524;8.536;2023-04-03T03:09:42;10.55;;;9.50;;
64052;SDS011;50299;49.524;8.536;2023-04-03T03:12:08;10.30;;;9.35;;
64052;SDS011;50299;49.524;8.536;2023-04-03T03:14:34;48.95;;;13.98;;
64052;SDS011;50299;49.524;8.536;2023-04-03T03:17:01;17.33;;;13.75;;
64052;SDS011;50299;49.524;8.536;2023-04-03T03:19:27;9.30;;;8.43;;
64052;SDS011;50299;49.524;8.536;2023-04-03T03:21:54;7.75;;;6.78;;
64052;SDS011;50299;49.524;8.536;2023-04-03T03:24:21;13.30;;;10.77;;
64052;SDS011;50299;49.524;8.536;2023-04-03T03:26:47;6.97;;;6.25;;
64052;SDS011;50299;49.524;8.536;2023-04-03T03:29:13;8.52;;;7.00;;
64052;SDS011;50299;49.524;8.536;2023-04-03T03:31:40;11.60;;;8.00;;
64052;SDS011;50299;49.524;8.536;2023-04-03T03:34:06;8.70;;;7.90;;
64052;SDS011;50299;49.524;8.536;2023-04-03T03:36:33;15.93;;;12.18;;
64052;SDS011;50299;49.524;8.536;2023-04-03T03:38:59;10.63;;;9.57;;
64052;SDS011;50299;49.524;8.536;2023-04-03T03:41:25;7.75;;;6.95;;
64052;SDS011;50299;49.524;8.536;2023-04-03T03:43:52;10.60;;;8.65;;
64052;SDS011;50299;49.524;8.536;2023-04-03T03:46:18;7.68;;;6.88;;
64052;SDS011;50299;49.524;8.536;2023-04-03T03:48:45;93.57;;;16.90;;
64052;SDS011;50299;49.524;8.536;2023-04-03T03:51:11;10.20;;;9.20;;
64052;SDS011;50299;49.524;8.536;2023-04-03T03:53:38;10.55;;;9.50;;
64052;SDS011;50299;49.524;8.536;2023-04-03T03:56:04;8.77;;;7.88;;
64052;SDS011;50299;49.524;8.536;2023-04-03T03:58:31;9.07;;;8.18;;
64052;SDS011;50299;49.524;8.536;2023-04-03T04:01:05;11.10;;;8.70;;
64052;SDS011;50299;49.524;8.536;2023-04-03T04:03:32;11.05;;;10.13;;
64052;SDS011;50299;49.524;8.536;2023-04-03T04:05:59;14.00;;;10.05;;
64052;SDS011;50299;49.524;8.536;2023-04-03T04:08:26;92.10;;;24.50;;
64052;SDS011;50299;49.524;8.536;2023-04-03T04:10:52;245.57;;;45.05;;
64052;SDS011;50299;49.524;8.536;2023-04-03T04:13:19;254.45;;;33.25;;
64052;SDS011;50299;49.524;8.536;2023-04-03T04:15:46;126.63;;;31.90;;
64052;SDS011;50299;49.524;8.536;2023-04-03T04:18:13;254.25;;;38.45;;
64052;SDS011;50299;49.524;8.536;2023-04-03T04:20:39;20.60;;;15.07;;
64052;SDS011;50299;49.524;8.536;2023-04-03T04:23:05;16.58;;;10.82;;
64052;SDS011;50299;49.524;8.536;2023-04-03T04:25:32;10.57;;;9.48;;
64052;SDS011;50299;49.524;8.536;2023-04-03T04:27:58;10.90;;;9.82;;
64052;SDS011;50299;49.524;8.536;2023-04-03T04:30:25;12.02;;;10.82;;
64052;SDS011;50299;49.524;8.536;2023-04-03T04:32:52;10.73;;;9.73;;
64052;SDS011;50299;49.524;8.536;2023-04-03T04:35:18;37.28;;;13.07;;
64052;SDS011;50299;49.524;8.536;2023-04-03T04:37:47;51.75;;;18.65;;
64052;SDS011;50299;49.524;8.536;2023-04-03T04:40:16;112.70;;;28.92;;
64052;SDS011;50299;49.524;8.536;2023-04-03T04:42:44;136.38;;;32.35;;
64052;SDS011;50299;49.524;8.536;2023-04-03T04:45:13;25.30;;;14.88;;
64052;SDS011;50299;49.524;8.536;2023-04-03T04:47:41;14.18;;;11.32;;
64052;SDS011;50299;49.524;8.536;2023-04-03T04:50:07;10.57;;;9.63;;
64052;SDS011;50299;49.524;8.536;2023-04-03T04:52:34;28.83;;;11.95;;
64052;SDS011;50299;49.524;8.536;2023-04-03T04:55:01;10.63;;;8.40;;
64052;SDS011;50299;49.524;8.536;2023-04-03T04:57:28;12.15;;;11.05;;
64052;SDS011;50299;49.524;8.536;2023-04-03T04:59:58;19.73;;;13.15;;
64052;SDS011;50299;49.524;8.536;2023-04-03T05:02:24;18.17;;;13.30;;
64052;SDS011;50299;49.524;8.536;2023-04-03T05:04:51;39.97;;;14.25;;
64052;SDS011;50299;49.524;8.536;2023-04-03T05:07:20;11.57;;;10.40;;
64052;SDS011;50299;49.524;8.536;2023-04-03T05:09:49;10.52;;;9.55;;
64052;SDS011;50299;49.524;8.536;2023-04-03T05:12:15;37.13;;;11.98;;
64052;SDS011;50299;49.524;8.536;2023-04-03T05:14:44;34.38;;;12.50;;
64052;SDS011;50299;49.524;8.536;2023-04-03T05:17:11;106.45;;;23.85;;
64052;SDS011;50299;49.524;8.536;2023-04-03T05:19:49;726.95;;;95.88;;
64052;SDS011;50299;49.524;8.536;2023-04-03T05:22:18;111.28;;;20.40;;
64052;SDS011;50299;49.524;8.536;2023-04-03T05:24:44;13.15;;;11.82;;
64052;SDS011;50299;49.524;8.536;2023-04-03T05:27:11;12.63;;;11.32;;
64052;SDS011;50299;49.524;8.536;2023-04-03T05:29:38;60.55;;;13.75;;
64052;SDS011;50299;49.524;8.536;2023-04-03T05:32:04;42.22;;;12.43;;
64052;SDS011;50299;49.524;8.536;2023-04-03T05:34:31;10.73;;;9.73;;
64052;SDS011;50299;49.524;8.536;2023-04-03T05:37:00;132.30;;;28.35;;
64052;SDS011;50299;49.524;8.536;2023-04-03T05:39:32;10.25;;;9.23;;
64052;SDS011;50299;49.524;8.536;2023-04-03T05:42:01;12.93;;;9.70;;
64052;SDS011;50299;49.524;8.536;2023-04-03T05:44:29;30.63;;;11.75;;
64052;SDS011;50299;49.524;8.536;2023-04-03T05:46:58;9.70;;;8.70;;
64052;SDS011;50299;49.524;8.536;2023-04-03T05:49:24;17.38;;;14.10;;
64052;SDS011;50299;49.524;8.536;2023-04-03T05:51:53;29.15;;;12.32;;
64052;SDS011;50299;49.524;8.536;2023-04-03T05:54:23;11.70;;;10.50;;
64052;SDS011;50299;49.524;8.536;2023-04-03T05:56:52;13.95;;;10.10;;
64052;SDS011;50299;49.524;8.536;2023-04-03T05:59:19;12.95;;;10.85;;
64052;SDS011;50299;49.524;8.536;2023-04-03T06:01:46;21.05;;;10.38;;
64052;SDS011;50299;49.524;8.536;2023-04-03T06:04:15;15.55;;;12.15;;
64052;SDS011;50299;49.524;8.536;2023-04-03T06:06:46;13.95;;;8.32;;
64052;SDS011;50299;49.524;8.536;2023-04-03T06:09:13;10.63;;;9.43;;
64052;SDS011;50299;49.524;8.536;2023-04-03T06:11:41;10.70;;;9.63;;
64052;SDS011;50299;49.524;8.536;2023-04-03T06:14:08;22.88;;;12.98;;
64052;SDS011;50299;49.524;8.536;2023-04-03T06:16:41;14.27;;;10.55;;
64052;SDS011;50299;49.524;8.536;2023-04-03T06:19:11;15.23;;;11.65;;
64052;SDS011;50299;49.524;8.536;2023-04-03T06:21:43;11.27;;;10.18;;
64052;SDS011;50299;49.524;8.536;2023-04-03T06:24:11;10.80;;;9.68;;
64052;SDS011;50299;49.524;8.536;2023-04-03T06:26:41;7.72;;;6.80;;
64052;SDS011;50299;49.524;8.536;2023-04-03T06:29:08;8.75;;;7.88;;
64052;SDS011;50299;49.524;8.536;2023-04-03T06:31:35;9.32;;;7.35;;
64052;SDS011;50299;49.524;8.536;2023-04-03T06:34:05;7.55;;;6.78;;
64052;SDS011;50299;49.524;8.536;2023-04-03T06:39:13;7.95;;;7.00;;
64052;SDS011;50299;49.524;8.536;2023-04-03T06:44:33;8.43;;;7.22;;
64052;SDS011;50299;49.524;8.536;2023-04-03T06:47:00;8.45;;;7.63;;
64052;SDS011;50299;49.524;8.536;2023-04-03T06:49:27;7.50;;;5.63;;
64052;SDS011;50299;49.524;8.536;2023-04-03T06:51:55;9.63;;;7.18;;
64052;SDS011;50299;49.524;8.536;2023-04-03T06:54:22;8.65;;;7.63;;
64052;SDS011;50299;49.524;8.536;2023-04-03T06:56:51;8.75;;;7.82;;
64052;SDS011;50299;49.524;8.536;2023-04-03T06:59:18;10.82;;;9.15;;
64052;SDS011;50299;49.524;8.536;2023-04-03T07:01:46;11.88;;;8.63;;
64052;SDS011;50299;49.524;8.536;2023-04-03T07:04:16;8.82;;;7.28;;
64052;SDS011;50299;49.524;8.536;2023-04-03T07:06:42;7.45;;;6.55;;
64052;SDS011;50299;49.524;8.536;2023-04-03T07:09:13;9.30;;;6.57;;
64052;SDS011;50299;49.524;8.536;2023-04-03T07:11:40;9.52;;;7.43;;
64052;SDS011;50299;49.524;8.536;2023-04-03T07:14:07;8.52;;;6.53;;
64052;SDS011;50299;49.524;8.536;2023-04-03T07:16:35;8.57;;;7.10;;
64052;SDS011;50299;49.524;8.536;2023-04-03T07:19:04;9.05;;;7.25;;
64052;SDS011;50299;49.524;8.536;2023-04-03T07:21:35;10.98;;;6.43;;
64052;SDS011;50299;49.524;8.536;2023-04-03T07:24:02;9.48;;;7.13;;
64052;SDS011;50299;49.524;8.536;2023-04-03T07:26:28;7.70;;;6.47;;
64052;SDS011;50299;49.524;8.536;2023-04-03T07:28:55;8.85;;;6.82;;
64052;SDS011;50299;49.524;8.536;2023-04-03T07:31:22;7.00;;;5.63;;
64052;SDS011;50299;49.524;8.536;2023-04-03T07:33:49;7.00;;;6.25;;
64052;SDS011;50299;49.524;8.536;2023-04-03T07:36:17;5.55;;;4.75;;
64052;SDS011;50299;49.524;8.536;2023-04-03T07:38:47;6.28;;;5.68;;
64052;SDS011;50299;49.524;8.536;2023-04-03T07:41:14;6.32;;;5.28;;
64052;SDS011;50299;49.524;8.536;2023-04-03T07:43:45;9.25;;;4.55;;
64052;SDS011;50299;49.524;8.536;2023-04-03T07:46:13;6.65;;;5.93;;
64052;SDS011;50299;49.524;8.536;2023-04-03T07:48:40;6.60;;;5.55;;
64052;SDS011;50299;49.524;8.536;2023-04-03T07:51:06;6.70;;;4.93;;
64052;SDS011;50299;49.524;8.536;2023-04-03T07:53:33;5.18;;;4.70;;
64052;SDS011;50299;49.524;8.536;2023-04-03T07:56:03;7.20;;;5.03;;
64052;SDS011;50299;49.524;8.536;2023-04-03T07:58:30;7.00;;;4.78;;
64052;SDS011;50299;49.524;8.536;2023-04-03T08:00:56;5.82;;;4.40;;
64052;SDS011;50299;49.524;8.536;2023-04-03T08:03:28;5.63;;;4.63;;
64052;SDS011;50299;49.524;8.536;2023-04-03T08:06:00;6.68;;;4.72;;
64052;SDS011;50299;49.524;8.536;2023-04-03T08:08:34;5.05;;;2.90;;
64052;SDS011;50299;49.524;8.536;2023-04-03T08:11:02;4.57;;;4.18;;
64052;SDS011;50299;49.524;8.536;2023-04-03T08:13:31;3.30;;;3.00;;
64052;SDS011;50299;49.524;8.536;2023-04-03T08:16:17;4.00;;;3.60;;
64052;SDS011;50299;49.524;8.536;2023-04-03T08:18:47;4.35;;;3.72;;
64052;SDS011;50299;49.524;8.536;2023-04-03T08:21:15;4.43;;;3.42;;
64052;SDS011;50299;49.524;8.536;2023-04-03T08:23:43;4.80;;;3.53;;
64052;SDS011;50299;49.524;8.536;2023-04-03T08:26:11;3.92;;;3.60;;
64052;SDS011;50299;49.524;8.536;2023-04-03T08:28:39;4.55;;;3.30;;
64052;SDS011;50299;49.524;8.536;2023-04-03T08:31:07;4.72;;;3.42;;
64052;SDS011;50299;49.524;8.536;2023-04-03T08:33:39;3.15;;;2.72;;
64052;SDS011;50299;49.524;8.536;2023-04-03T08:36:06;5.07;;;3.47;;
64052;SDS011;50299;49.524;8.536;2023-04-03T08:38:42;4.10;;;2.28;;
64052;SDS011;50299;49.524;8.536;2023-04-03T08:41:18;3.33;;;3.03;;
64052;SDS011;50299;49.524;8.536;2023-04-03T08:44:02;3.78;;;2.88;;
64052;SDS011;50299;49.524;8.536;2023-04-03T08:46:54;4.65;;;3.83;;
64052;SDS011;50299;49.524;8.536;2023-04-03T08:49:42;2.65;;;2.40;;
64052;SDS011;50299;49.524;8.536;2023-04-03T08:52:36;3.72;;;2.75;;
64052;SDS011;50299;49.524;8.536;2023-04-03T08:58:05;3.13;;;2.72;;
64052;SDS011;50299;49.524;8.536;2023-04-03T09:00:41;3.47;;;3.00;;
64052;SDS011;50299;49.524;8.536;2023-04-03T09:03:19;3.40;;;2.88;;
64052;SDS011;50299;49.524;8.536;2023-04-03T09:06:15;3.25;;;2.40;;
64052;SDS011;50299;49.524;8.536;2023-04-03T09:14:14;10.60;;;2.85;;
64052;SDS011;50299;49.524;8.536;2023-04-03T09:16:58;5.75;;;2.35;;
64052;SDS011;50299;49.524;8.536;2023-04-03T09:19:36;2.45;;;2.25;;
64052;SDS011;50299;49.524;8.536;2023-04-03T09:22:23;2.92;;;2.40;;
64052;SDS011;50299;49.524;8.536;2023-04-03T09:27:30;3.38;;;3.10;;
64052;SDS011;50299;49.524;8.536;2023-04-03T09:29:57;2.47;;;2.28;;
64052;SDS011;50299;49.524;8.536;2023-04-03T09:32:29;3.90;;;2.60;;
64052;SDS011;50299;49.524;8.536;2023-04-03T09:40:40;3.05;;;1.83;;
64052;SDS011;50299;49.524;8.536;2023-04-03T09:43:32;3.10;;;2.78;;
64052;SDS011;50299;49.524;8.536;2023-04-03T09:46:15;3.55;;;2.45;;
64052;SDS011;50299;49.524;8.536;2023-04-03T09:48:51;2.58;;;2.38;;
64052;SDS011;50299;49.524;8.536;2023-04-03T09:51:34;2.83;;;2.35;;
64052;SDS011;50299;49.524;8.536;2023-04-03T09:54:01;2.88;;;2.58;;
64052;SDS011;50299;49.524;8.536;2023-04-03T09:56:53;3.00;;;2.15;;
64052;SDS011;50299;49.524;8.536;2023-04-03T09:59:22;2.78;;;1.85;;
64052;SDS011;50299;49.524;8.536;2023-04-03T10:01:56;2.33;;;2.13;;
64052;SDS011;50299;49.524;8.536;2023-04-03T10:04:39;3.13;;;2.17;;
64052;SDS011;50299;49.524;8.536;2023-04-03T10:07:26;5.72;;;1.92;;
64052;SDS011;50299;49.524;8.536;2023-04-03T10:09:56;3.08;;;2.58;;
64052;SDS011;50299;49.524;8.536;2023-04-03T10:12:27;3.67;;;2.38;;
64052;SDS011;50299;49.524;8.536;2023-04-03T10:14:58;4.15;;;2.83;;
64052;SDS011;50299;49.524;8.536;2023-04-03T10:17:38;2.75;;;2.20;;
64052;SDS011;50299;49.524;8.536;2023-04-03T10:23:18;2.35;;;2.17;;
64052;SDS011;50299;49.524;8.536;2023-04-03T10:26:17;2.33;;;2.13;;
64052;SDS011;50299;49.524;8.536;2023-04-03T10:31:42;3.00;;;2.03;;
64052;SDS011;50299;49.524;8.536;2023-04-03T10:34:35;2.55;;;2.35;;
64052;SDS011;50299;49.524;8.536;2023-04-03T10:43:09;2.15;;;1.60;;
64052;SDS011;50299;49.524;8.536;2023-04-03T10:45:55;2.22;;;1.67;;
64052;SDS011;50299;49.524;8.536;2023-04-03T10:48:33;3.33;;;2.85;;
64052;SDS011;50299;49.524;8.536;2023-04-03T10:51:20;2.75;;;2.55;;
64052;SDS011;50299;49.524;8.536;2023-04-03T11:04:51;2.85;;;2.53;;
64052;SDS011;50299;49.524;8.536;2023-04-03T11:07:22;2.88;;;2.67;;
64052;SDS011;50299;49.524;8.536;2023-04-03T11:09:56;2.75;;;2.42;;
64052;SDS011;50299;49.524;8.536;2023-04-03T11:12:41;2.33;;;2.10;;
64052;SDS011;50299;49.524;8.536;2023-04-03T11:15:15;16.25;;;3.70;;
64052;SDS011;50299;49.524;8.536;2023-04-03T11:17:56;3.80;;;2.35;;
64052;SDS011;50299;49.524;8.536;2023-04-03T11:20:30;3.83;;;2.55;;
64052;SDS011;50299;49.524;8.536;2023-04-03T11:23:05;13.07;;;3.38;;
64052;SDS011;50299;49.524;8.536;2023-04-03T11:25:42;1.80;;;1.60;;
64052;SDS011;50299;49.524;8.536;2023-04-03T11:28:12;3.38;;;1.92;;
64052;SDS011;50299;49.524;8.536;2023-04-03T11:33:47;5.63;;;2.70;;
64052;SDS011;50299;49.524;8.536;2023-04-03T11:36:23;3.03;;;2.22;;
64052;SDS011;50299;49.524;8.536;2023-04-03T11:39:02;2.55;;;2.35;;
64052;SDS011;50299;49.524;8.536;2023-04-03T11:41:43;3.50;;;2.08;;
64052;SDS011;50299;49.524;8.536;2023-04-03T11:44:25;3.13;;;1.88;;
64052;SDS011;50299;49.524;8.536;2023-04-03T11:47:06;3.63;;;2.92;;
64052;SDS011;50299;49.524;8.536;2023-04-03T11:49:55;2.60;;;1.80;;
64052;SDS011;50299;49.524;8.536;2023-04-03T11:58:02;3.58;;;2.40;;
64052;SDS011;50299;49.524;8.536;2023-04-03T12:16:28;7.75;;;2.50;;
64052;SDS011;50299;49.524;8.536;2023-04-03T12:24:25;3.00;;;2.35;;
64052;SDS011;50299;49.524;8.536;2023-04-03T12:35:14;2.90;;;2.47;;
64052;SDS011;50299;49.524;8.536;2023-04-03T12:38:10;2.50;;;2.30;;
64052;SDS011;50299;49.524;8.536;2023-04-03T12:41:06;3.05;;;2.85;;
64052;SDS011;50299;49.524;8.536;2023-04-03T12:44:01;3.00;;;2.72;;
64052;SDS011;50299;49.524;8.536;2023-04-03T12:46:43;4.68;;;2.90;;
64052;SDS011;50299;49.524;8.536;2023-04-03T12:49:24;3.63;;;2.38;;
64052;SDS011;50299;49.524;8.536;2023-04-03T12:51:53;4.28;;;2.00;;
64052;SDS011;50299;49.524;8.536;2023-04-03T12:54:30;16.52;;;3.75;;
64052;SDS011;50299;49.524;8.536;2023-04-03T12:57:12;3.30;;;2.70;;
64052;SDS011;50299;49.524;8.536;2023-04-03T12:59:43;4.10;;;2.97;;
64052;SDS011;50299;49.524;8.536;2023-04-03T13:05:15;3.85;;;3.38;;
64052;SDS011;50299;49.524;8.536;2023-04-03T13:07:44;3.78;;;2.53;;
64052;SDS011;50299;49.524;8.536;2023-04-03T13:10:18;4.93;;;2.83;;
64052;SDS011;50299;49.524;8.536;2023-04-03T13:15:21;3.53;;;3.17;;
64052;SDS011;50299;49.524;8.536;2023-04-03T13:17:53;2.90;;;2.70;;
64052;SDS011;50299;49.524;8.536;2023-04-03T13:20:22;3.75;;;2.72;;
64052;SDS011;50299;49.524;8.536;2023-04-03T13:23:13;3.53;;;3.05;;
64052;SDS011;50299;49.524;8.536;2023-04-03T13:25:44;4.80;;;2.75;;
64052;SDS011;50299;49.524;8.536;2023-04-03T13:28:12;2.58;;;2.38;;
64052;SDS011;50299;49.524;8.536;2023-04-03T13:30:49;2.53;;;2.28;;
64052;SDS011;50299;49.524;8.536;2023-04-03T13:33:26;2.25;;;2.00;;
64052;SDS011;50299;49.524;8.536;2023-04-03T13:35:56;3.10;;;2.42;;
64052;SDS011;50299;49.524;8.536;2023-04-03T13:38:27;4.72;;;2.97;;
64052;SDS011;50299;49.524;8.536;2023-04-03T13:41:01;2.95;;;2.65;;
64052;SDS011;50299;49.524;8.536;2023-04-03T13:43:32;5.53;;;2.53;;
64052;SDS011;50299;49.524;8.536;2023-04-03T13:48:43;3.50;;;3.20;;
64052;SDS011;50299;49.524;8.536;2023-04-03T13:53:52;3.40;;;2.42;;
64052;SDS011;50299;49.524;8.536;2023-04-03T13:56:34;3.03;;;2.83;;
64052;SDS011;50299;49.524;8.536;2023-04-03T14:02:29;3.33;;;3.03;;
64052;SDS011;50299;49.524;8.536;2023-04-03T14:04:44;3.05;;;2.78;;
64052;SDS011;50299;49.524;8.536;2023-04-03T14:07:15;2.28;;;2.00;;
64052;SDS011;50299;49.524;8.536;2023-04-03T14:09:46;2.75;;;2.55;;
64052;SDS011;50299;49.524;8.536;2023-04-03T14:12:27;2.97;;;2.47;;
64052;SDS011;50299;49.524;8.536;2023-04-03T14:14:58;3.45;;;3.17;;
64052;SDS011;50299;49.524;8.536;2023-04-03T14:17:27;4.72;;;2.70;;
64052;SDS011;50299;49.524;8.536;2023-04-03T14:19:55;3.38;;;3.08;;
64052;SDS011;50299;49.524;8.536;2023-04-03T14:22:24;2.75;;;2.55;;
64052;SDS011;50299;49.524;8.536;2023-04-03T14:24:54;4.00;;;3.13;;
64052;SDS011;50299;49.524;8.536;2023-04-03T14:27:23;4.22;;;2.72;;
64052;SDS011;50299;49.524;8.536;2023-04-03T14:29:53;3.22;;;2.08;;
64052;SDS011;50299;49.524;8.536;2023-04-03T14:32:22;3.03;;;2.83;;
64052;SDS011;50299;49.524;8.536;2023-04-03T14:34:50;9.45;;;3.45;;
64052;SDS011;50299;49.524;8.536;2023-04-03T14:37:20;3.10;;;2.90;;
64052;SDS011;50299;49.524;8.536;2023-04-03T14:39:52;3.58;;;2.75;;
64052;SDS011;50299;49.524;8.536;2023-04-03T14:42:21;2.95;;;2.72;;
64052;SDS011;50299;49.524;8.536;2023-04-03T14:44:50;2.90;;;2.60;;
64052;SDS011;50299;49.524;8.536;2023-04-03T14:47:18;2.22;;;2.13;;
64052;SDS011;50299;49.524;8.536;2023-04-03T14:49:58;2.75;;;2.55;;
64052;SDS011;50299;49.524;8.536;2023-04-03T14:52:33;3.60;;;3.30;;
64052;SDS011;50299;49.524;8.536;2023-04-03T14:55:03;2.38;;;2.05;;
64052;SDS011;50299;49.524;8.536;2023-04-03T14:57:32;3.67;;;3.28;;
64052;SDS011;50299;49.524;8.536;2023-04-03T14:59:59;4.15;;;2.97;;
64052;SDS011;50299;49.524;8.536;2023-04-03T15:02:45;2.58;;;2.05;;
64052;SDS011;50299;49.524;8.536;2023-04-03T15:05:14;4.18;;;2.30;;
64052;SDS011;50299;49.524;8.536;2023-04-03T15:07:46;4.63;;;2.60;;
64052;SDS011;50299;49.524;8.536;2023-04-03T15:10:19;2.85;;;2.58;;
64052;SDS011;50299;49.524;8.536;2023-04-03T15:12:52;2.80;;;2.47;;
64052;SDS011;50299;49.524;8.536;2023-04-03T15:15:22;2.67;;;2.58;;
64052;SDS011;50299;49.524;8.536;2023-04-03T15:17:56;3.35;;;2.95;;
64052;SDS011;50299;49.524;8.536;2023-04-03T15:20:26;2.55;;;2.35;;
64052;SDS011;50299;49.524;8.536;2023-04-03T15:23:05;4.22;;;2.42;;
64052;SDS011;50299;49.524;8.536;2023-04-03T15:25:33;2.90;;;2.25;;
64052;SDS011;50299;49.524;8.536;2023-04-03T15:28:00;3.20;;;2.90;;
64052;SDS011;50299;49.524;8.536;2023-04-03T15:32:56;4.45;;;2.40;;
64052;SDS011;50299;49.524;8.536;2023-04-03T15:35:23;3.00;;;2.40;;
64052;SDS011;50299;49.524;8.536;2023-04-03T15:37:52;1.70;;;1.60;;
64052;SDS011;50299;49.524;8.536;2023-04-03T15:40:18;2.47;;;2.28;;
64052;SDS011;50299;49.524;8.536;2023-04-03T15:42:45;2.22;;;1.95;;
64052;SDS011;50299;49.524;8.536;2023-04-03T15:45:12;2.05;;;1.70;;
64052;SDS011;50299;49.524;8.536;2023-04-03T15:47:39;3.00;;;2.80;;
64052;SDS011;50299;49.524;8.536;2023-04-03T15:50:07;2.63;;;2.42;;
64052;SDS011;50299;49.524;8.536;2023-04-03T15:52:34;2.10;;;1.83;;
64052;SDS011;50299;49.524;8.536;2023-04-03T15:55:04;2.22;;;1.83;;
64052;SDS011;50299;49.524;8.536;2023-04-03T15:57:32;3.30;;;2.17;;
64052;SDS011;50299;49.524;8.536;2023-04-03T16:00:05;2.65;;;2.47;;
64052;SDS011;50299;49.524;8.536;2023-04-03T16:02:33;2.55;;;2.35;;
64052;SDS011;50299;49.524;8.536;2023-04-03T16:05:01;2.78;;;1.60;;
64052;SDS011;50299;49.524;8.536;2023-04-03T16:07:28;2.40;;;2.20;;
64052;SDS011;50299;49.524;8.536;2023-04-03T16:09:54;1.70;;;1.45;;
64052;SDS011;50299;49.524;8.536;2023-04-03T16:12:21;2.60;;;2.40;;
64052;SDS011;50299;49.524;8.536;2023-04-03T16:14:48;2.97;;;2.33;;
64052;SDS011;50299;49.524;8.536;2023-04-03T16:17:14;2.40;;;2.20;;
64052;SDS011;50299;49.524;8.536;2023-04-03T16:19:41;2.78;;;2.47;;
64052;SDS011;50299;49.524;8.536;2023-04-03T16:22:07;2.72;;;1.63;;
64052;SDS011;50299;49.524;8.536;2023-04-03T16:24:34;2.00;;;1.90;;
64052;SDS011;50299;49.524;8.536;2023-04-03T16:27:01;2.05;;;1.73;;
64052;SDS011;50299;49.524;8.536;2023-04-03T16:29:28;1.77;;;1.67;;
64052;SDS011;50299;49.524;8.536;2023-04-03T16:31:54;3.30;;;2.67;;
64052;SDS011;50299;49.524;8.536;2023-04-03T16:34:22;1.92;;;1.67;;
64052;SDS011;50299;49.524;8.536;2023-04-03T16:39:20;2.65;;;2.17;;
64052;SDS011;50299;49.524;8.536;2023-04-03T16:41:46;3.08;;;2.50;;
64052;SDS011;50299;49.524;8.536;2023-04-03T16:44:13;2.55;;;1.80;;
64052;SDS011;50299;49.524;8.536;2023-04-03T16:46:39;2.53;;;2.22;;